sensor_id;sensor_type;location;lat;lon;timestamp;pressure;altitude;pressure_sealevel;temperature;humidity
9462;BME280;4769;42.660;23.262;2023-02-11T00:00:44;95598.53;;;-1.23;64.00
9462;BME280;4769;42.660;23.262;2023-02-11T00:03:11;95602.31;;;-1.36;64.47
9462;BME280;4769;42.660;23.262;2023-02-11T00:05:38;95599.16;;;-1.40;63.85
9462;BME280;4769;42.660;23.262;2023-02-11T00:08:05;95607.13;;;-1.62;63.29
9462;BME280;4769;42.660;23.262;2023-02-11T00:10:33;95611.06;;;-1.67;63.71
9462;BME280;4769;42.660;23.262;2023-02-11T00:12:59;95610.25;;;-1.68;64.29
9462;BME280;4769;42.660;23.262;2023-02-11T00:15:26;95608.84;;;-1.72;64.20
9462;BME280;4769;42.660;23.262;2023-02-11T00:17:53;95614.13;;;-1.83;64.41
9462;BME280;4769;42.660;23.262;2023-02-11T00:20:20;95619.13;;;-1.91;64.92
9462;BME280;4769;42.660;23.262;2023-02-11T00:22:46;95608.91;;;-2.13;65.60
9462;BME280;4769;42.660;23.262;2023-02-11T00:25:13;95617.00;;;-2.06;65.58
9462;BME280;4769;42.660;23.262;2023-02-11T00:27:41;95622.03;;;-2.05;66.32
9462;BME280;4769;42.660;23.262;2023-02-11T00:30:09;95614.09;;;-2.13;66.24
9462;BME280;4769;42.660;23.262;2023-02-11T00:32:36;95623.06;;;-2.37;67.14
9462;BME280;4769;42.660;23.262;2023-02-11T00:35:03;95623.03;;;-2.17;66.03
9462;BME280;4769;42.660;23.262;2023-02-11T00:37:30;95619.34;;;-2.24;66.59
9462;BME280;4769;42.660;23.262;2023-02-11T00:40:00;95613.41;;;-2.15;65.79
9462;BME280;4769;42.660;23.262;2023-02-11T00:42:27;95614.19;;;-1.94;65.21
9462;BME280;4769;42.660;23.262;2023-02-11T00:44:55;95615.16;;;-1.95;65.40
9462;BME280;4769;42.660;23.262;2023-02-11T00:47:22;95600.03;;;-1.99;65.13
9462;BME280;4769;42.660;23.262;2023-02-11T00:49:49;95603.44;;;-1.69;64.25
9462;BME280;4769;42.660;23.262;2023-02-11T00:52:17;95592.25;;;-1.79;63.80
9462;BME280;4769;42.660;23.262;2023-02-11T00:54:43;95598.09;;;-1.77;63.50
9462;BME280;4769;42.660;23.262;2023-02-11T00:57:10;95596.47;;;-1.78;63.61
9462;BME280;4769;42.660;23.262;2023-02-11T00:59:37;95593.56;;;-1.84;63.23
9462;BME280;4769;42.660;23.262;2023-02-11T01:02:05;95587.41;;;-1.93;63.33
9462;BME280;4769;42.660;23.262;2023-02-11T01:04:32;95593.09;;;-1.99;63.06
9462;BME280;4769;42.660;23.262;2023-02-11T01:06:58;95601.13;;;-2.02;63.79
9462;BME280;4769;42.660;23.262;2023-02-11T01:09:25;95598.41;;;-2.00;64.17
9462;BME280;4769;42.660;23.262;2023-02-11T01:11:52;95601.06;;;-2.11;64.47
9462;BME280;4769;42.660;23.262;2023-02-11T01:14:18;95594.34;;;-2.23;64.44
9462;BME280;4769;42.660;23.262;2023-02-11T01:16:45;95587.81;;;-2.18;64.50
9462;BME280;4769;42.660;23.262;2023-02-11T01:19:13;95588.28;;;-2.33;65.34
9462;BME280;4769;42.660;23.262;2023-02-11T01:21:40;95591.88;;;-2.25;64.81
9462;BME280;4769;42.660;23.262;2023-02-11T01:24:07;95588.09;;;-2.21;64.32
9462;BME280;4769;42.660;23.262;2023-02-11T01:26:34;95587.78;;;-2.27;64.22
9462;BME280;4769;42.660;23.262;2023-02-11T01:29:00;95592.44;;;-2.21;63.92
9462;BME280;4769;42.660;23.262;2023-02-11T01:31:29;95584.25;;;-2.26;64.13
9462;BME280;4769;42.660;23.262;2023-02-11T01:33:55;95595.03;;;-2.42;64.68
9462;BME280;4769;42.660;23.262;2023-02-11T01:36:24;95598.16;;;-2.38;64.96
9462;BME280;4769;42.660;23.262;2023-02-11T01:38:50;95591.44;;;-2.50;65.39
9462;BME280;4769;42.660;23.262;2023-02-11T01:41:17;95578.66;;;-2.31;64.90
9462;BME280;4769;42.660;23.262;2023-02-11T01:43:47;95581.78;;;-2.28;64.64
9462;BME280;4769;42.660;23.262;2023-02-11T01:46:30;95575.03;;;-2.19;64.58
9462;BME280;4769;42.660;23.262;2023-02-11T01:49:02;95570.91;;;-2.52;65.59
9462;BME280;4769;42.660;23.262;2023-02-11T01:51:34;95568.09;;;-2.49;65.76
9462;BME280;4769;42.660;23.262;2023-02-11T01:54:06;95569.75;;;-2.38;65.05
9462;BME280;4769;42.660;23.262;2023-02-11T01:56:54;95573.41;;;-2.41;65.18
9462;BME280;4769;42.660;23.262;2023-02-11T01:59:44;95572.84;;;-2.44;65.36
9462;BME280;4769;42.660;23.262;2023-02-11T02:02:14;95568.53;;;-2.64;64.98
9462;BME280;4769;42.660;23.262;2023-02-11T02:04:47;95581.09;;;-2.71;64.84
9462;BME280;4769;42.660;23.262;2023-02-11T02:07:26;95570.91;;;-2.72;64.77
9462;BME280;4769;42.660;23.262;2023-02-11T02:09:57;95582.53;;;-2.78;65.05
9462;BME280;4769;42.660;23.262;2023-02-11T02:12:26;95571.97;;;-2.75;65.16
9462;BME280;4769;42.660;23.262;2023-02-11T02:15:27;95575.84;;;-2.80;65.06
9462;BME280;4769;42.660;23.262;2023-02-11T02:18:05;95582.38;;;-2.97;65.39
9462;BME280;4769;42.660;23.262;2023-02-11T02:23:56;95583.25;;;-3.07;66.00
9462;BME280;4769;42.660;23.262;2023-02-11T02:30:15;95578.88;;;-2.75;64.33
9462;BME280;4769;42.660;23.262;2023-02-11T02:33:09;95579.63;;;-2.84;64.52
9462;BME280;4769;42.660;23.262;2023-02-11T02:35:45;95575.28;;;-2.84;64.70
9462;BME280;4769;42.660;23.262;2023-02-11T02:38:19;95563.25;;;-2.94;64.62
9462;BME280;4769;42.660;23.262;2023-02-11T02:40:52;95574.56;;;-2.75;63.52
9462;BME280;4769;42.660;23.262;2023-02-11T02:43:22;95573.81;;;-2.66;63.44
9462;BME280;4769;42.660;23.262;2023-02-11T02:45:51;95585.06;;;-2.67;63.16
9462;BME280;4769;42.660;23.262;2023-02-11T02:48:27;95570.53;;;-2.68;63.56
9462;BME280;4769;42.660;23.262;2023-02-11T02:51:05;95566.94;;;-2.76;63.34
9462;BME280;4769;42.660;23.262;2023-02-11T02:53:47;95577.00;;;-2.73;62.84
9462;BME280;4769;42.660;23.262;2023-02-11T02:56:25;95575.53;;;-2.87;63.89
9462;BME280;4769;42.660;23.262;2023-02-11T02:59:11;95573.44;;;-2.82;62.38
9462;BME280;4769;42.660;23.262;2023-02-11T03:01:49;95565.84;;;-2.74;62.75
9462;BME280;4769;42.660;23.262;2023-02-11T03:04:26;95582.41;;;-2.76;63.27
9462;BME280;4769;42.660;23.262;2023-02-11T03:06:59;95577.56;;;-2.70;62.46
9462;BME280;4769;42.660;23.262;2023-02-11T03:09:31;95555.16;;;-2.90;63.76
9462;BME280;4769;42.660;23.262;2023-02-11T03:12:03;95572.81;;;-2.74;63.85
9462;BME280;4769;42.660;23.262;2023-02-11T03:14:32;95570.78;;;-2.50;62.50
9462;BME280;4769;42.660;23.262;2023-02-11T03:17:03;95571.66;;;-2.61;62.45
9462;BME280;4769;42.660;23.262;2023-02-11T03:19:34;95580.84;;;-2.47;62.04
9462;BME280;4769;42.660;23.262;2023-02-11T03:22:06;95572.28;;;-2.48;62.14
9462;BME280;4769;42.660;23.262;2023-02-11T03:24:36;95568.53;;;-2.64;62.89
9462;BME280;4769;42.660;23.262;2023-02-11T03:27:09;95578.25;;;-2.47;62.44
9462;BME280;4769;42.660;23.262;2023-02-11T03:29:41;95567.31;;;-2.60;62.25
9462;BME280;4769;42.660;23.262;2023-02-11T03:32:14;95570.06;;;-2.52;62.17
9462;BME280;4769;42.660;23.262;2023-02-11T03:34:46;95563.16;;;-2.31;61.36
9462;BME280;4769;42.660;23.262;2023-02-11T03:37:19;95573.56;;;-2.63;60.69
9462;BME280;4769;42.660;23.262;2023-02-11T03:39:51;95567.56;;;-2.63;60.53
9462;BME280;4769;42.660;23.262;2023-02-11T03:42:19;95556.03;;;-2.80;60.74
9462;BME280;4769;42.660;23.262;2023-02-11T03:44:51;95570.81;;;-2.61;60.08
9462;BME280;4769;42.660;23.262;2023-02-11T03:47:22;95550.63;;;-2.97;61.61
9462;BME280;4769;42.660;23.262;2023-02-11T03:49:54;95562.19;;;-2.92;61.14
9462;BME280;4769;42.660;23.262;2023-02-11T03:52:23;95565.47;;;-2.90;60.51
9462;BME280;4769;42.660;23.262;2023-02-11T03:54:54;95564.97;;;-2.84;60.94
9462;BME280;4769;42.660;23.262;2023-02-11T03:57:23;95559.19;;;-2.76;60.82
9462;BME280;4769;42.660;23.262;2023-02-11T03:59:54;95564.69;;;-3.01;60.86
9462;BME280;4769;42.660;23.262;2023-02-11T04:02:22;95568.78;;;-2.99;60.57
9462;BME280;4769;42.660;23.262;2023-02-11T04:04:50;95554.69;;;-3.15;60.42
9462;BME280;4769;42.660;23.262;2023-02-11T04:07:19;95564.66;;;-3.22;59.95
9462;BME280;4769;42.660;23.262;2023-02-11T04:09:46;95565.13;;;-3.17;60.36
9462;BME280;4769;42.660;23.262;2023-02-11T04:12:13;95572.44;;;-3.33;60.57
9462;BME280;4769;42.660;23.262;2023-02-11T04:14:39;95569.97;;;-3.34;61.38
9462;BME280;4769;42.660;23.262;2023-02-11T04:17:06;95563.50;;;-3.29;60.54
9462;BME280;4769;42.660;23.262;2023-02-11T04:19:33;95558.78;;;-3.13;60.27
9462;BME280;4769;42.660;23.262;2023-02-11T04:22:00;95569.53;;;-3.08;60.05
9462;BME280;4769;42.660;23.262;2023-02-11T04:24:28;95563.44;;;-3.07;58.82
9462;BME280;4769;42.660;23.262;2023-02-11T04:26:55;95564.16;;;-3.16;59.36
9462;BME280;4769;42.660;23.262;2023-02-11T04:29:22;95570.84;;;-3.13;59.36
9462;BME280;4769;42.660;23.262;2023-02-11T04:31:49;95549.34;;;-3.34;59.77
9462;BME280;4769;42.660;23.262;2023-02-11T04:34:16;95562.53;;;-3.17;60.42
9462;BME280;4769;42.660;23.262;2023-02-11T04:36:42;95563.19;;;-3.04;60.60
9462;BME280;4769;42.660;23.262;2023-02-11T04:39:09;95558.78;;;-3.13;60.19
9462;BME280;4769;42.660;23.262;2023-02-11T04:41:37;95555.97;;;-3.10;60.19
9462;BME280;4769;42.660;23.262;2023-02-11T04:44:04;95547.50;;;-3.12;59.98
9462;BME280;4769;42.660;23.262;2023-02-11T04:46:31;95541.06;;;-3.17;59.37
9462;BME280;4769;42.660;23.262;2023-02-11T04:48:57;95546.66;;;-3.33;59.48
9462;BME280;4769;42.660;23.262;2023-02-11T04:51:24;95553.03;;;-3.16;60.40
9462;BME280;4769;42.660;23.262;2023-02-11T04:53:51;95553.94;;;-3.06;61.07
9462;BME280;4769;42.660;23.262;2023-02-11T04:56:18;95546.38;;;-3.19;60.93
9462;BME280;4769;42.660;23.262;2023-02-11T04:58:46;95552.25;;;-3.28;60.60
9462;BME280;4769;42.660;23.262;2023-02-11T05:01:14;95552.38;;;-3.29;60.37
9462;BME280;4769;42.660;23.262;2023-02-11T05:03:41;95554.06;;;-3.50;59.95
9462;BME280;4769;42.660;23.262;2023-02-11T05:06:09;95533.53;;;-3.41;60.66
9462;BME280;4769;42.660;23.262;2023-02-11T05:08:36;95541.44;;;-3.22;60.22
9462;BME280;4769;42.660;23.262;2023-02-11T05:11:03;95542.28;;;-3.21;60.15
9462;BME280;4769;42.660;23.262;2023-02-11T05:13:30;95540.56;;;-3.43;61.89
9462;BME280;4769;42.660;23.262;2023-02-11T05:15:58;95536.91;;;-3.29;61.57
9462;BME280;4769;42.660;23.262;2023-02-11T05:18:25;95519.41;;;-3.26;61.41
9462;BME280;4769;42.660;23.262;2023-02-11T05:20:52;95532.97;;;-3.13;60.71
9462;BME280;4769;42.660;23.262;2023-02-11T05:23:18;95531.25;;;-3.23;61.22
9462;BME280;4769;42.660;23.262;2023-02-11T05:25:45;95530.97;;;-3.41;60.91
9462;BME280;4769;42.660;23.262;2023-02-11T05:28:12;95542.16;;;-3.73;61.27
9462;BME280;4769;42.660;23.262;2023-02-11T05:30:39;95548.38;;;-3.76;62.87
9462;BME280;4769;42.660;23.262;2023-02-11T05:33:07;95533.25;;;-3.69;62.60
9462;BME280;4769;42.660;23.262;2023-02-11T05:35:33;95531.88;;;-3.84;62.63
9462;BME280;4769;42.660;23.262;2023-02-11T05:38:00;95547.53;;;-3.65;63.05
9462;BME280;4769;42.660;23.262;2023-02-11T05:40:27;95535.84;;;-3.69;64.41
9462;BME280;4769;42.660;23.262;2023-02-11T05:42:54;95547.03;;;-3.48;64.55
9462;BME280;4769;42.660;23.262;2023-02-11T05:45:21;95542.47;;;-3.45;65.14
9462;BME280;4769;42.660;23.262;2023-02-11T05:47:47;95535.84;;;-3.27;64.83
9462;BME280;4769;42.660;23.262;2023-02-11T05:50:16;95537.56;;;-3.16;64.57
9462;BME280;4769;42.660;23.262;2023-02-11T05:52:42;95539.84;;;-3.02;64.28
9462;BME280;4769;42.660;23.262;2023-02-11T05:55:09;95530.09;;;-2.99;63.50
9462;BME280;4769;42.660;23.262;2023-02-11T05:57:36;95544.19;;;-3.03;63.02
9462;BME280;4769;42.660;23.262;2023-02-11T06:00:04;95537.91;;;-3.10;62.73
9462;BME280;4769;42.660;23.262;2023-02-11T06:02:31;95544.19;;;-3.03;61.88
9462;BME280;4769;42.660;23.262;2023-02-11T06:04:58;95551.72;;;-3.11;61.71
9462;BME280;4769;42.660;23.262;2023-02-11T06:07:27;95557.19;;;-3.36;61.62
9462;BME280;4769;42.660;23.262;2023-02-11T06:09:53;95552.50;;;-3.31;62.18
9462;BME280;4769;42.660;23.262;2023-02-11T06:12:20;95549.81;;;-3.40;62.15
9462;BME280;4769;42.660;23.262;2023-02-11T06:14:47;95541.97;;;-3.39;61.75
9462;BME280;4769;42.660;23.262;2023-02-11T06:17:14;95548.97;;;-3.30;63.83
9462;BME280;4769;42.660;23.262;2023-02-11T06:19:41;95554.56;;;-3.14;64.64
9462;BME280;4769;42.660;23.262;2023-02-11T06:22:08;95553.84;;;-3.16;64.91
9462;BME280;4769;42.660;23.262;2023-02-11T06:24:36;95556.97;;;-3.01;65.20
9462;BME280;4769;42.660;23.262;2023-02-11T06:27:03;95547.63;;;-2.82;64.45
9462;BME280;4769;42.660;23.262;2023-02-11T06:29:30;95542.63;;;-2.74;64.46
9462;BME280;4769;42.660;23.262;2023-02-11T06:31:57;95560.22;;;-2.68;64.16
9462;BME280;4769;42.660;23.262;2023-02-11T06:34:24;95557.56;;;-2.77;62.31
9462;BME280;4769;42.660;23.262;2023-02-11T06:36:50;95555.28;;;-2.91;62.96
9462;BME280;4769;42.660;23.262;2023-02-11T06:39:17;95559.38;;;-2.68;62.51
9462;BME280;4769;42.660;23.262;2023-02-11T06:41:45;95560.34;;;-2.49;61.20
9462;BME280;4769;42.660;23.262;2023-02-11T06:44:12;95563.78;;;-2.59;61.06
9462;BME280;4769;42.660;23.262;2023-02-11T06:46:39;95564.66;;;-2.70;62.28
9462;BME280;4769;42.660;23.262;2023-02-11T06:49:05;95570.28;;;-2.65;63.34
9462;BME280;4769;42.660;23.262;2023-02-11T06:51:38;95560.03;;;-2.55;62.95
9462;BME280;4769;42.660;23.262;2023-02-11T06:54:06;95561.53;;;-2.53;63.16
9462;BME280;4769;42.660;23.262;2023-02-11T06:56:33;95562.19;;;-2.30;62.83
9462;BME280;4769;42.660;23.262;2023-02-11T06:59:02;95550.59;;;-2.36;61.96
9462;BME280;4769;42.660;23.262;2023-02-11T07:01:29;95554.78;;;-2.44;62.27
9462;BME280;4769;42.660;23.262;2023-02-11T07:03:56;95555.72;;;-2.25;62.10
9462;BME280;4769;42.660;23.262;2023-02-11T07:06:24;95569.91;;;-2.10;61.65
9462;BME280;4769;42.660;23.262;2023-02-11T07:08:52;95563.25;;;-2.12;62.45
9462;BME280;4769;42.660;23.262;2023-02-11T07:11:22;95550.34;;;-2.33;63.34
9462;BME280;4769;42.660;23.262;2023-02-11T07:13:50;95560.84;;;-2.04;63.76
9462;BME280;4769;42.660;23.262;2023-02-11T07:16:18;95566.88;;;-1.85;63.15
9462;BME280;4769;42.660;23.262;2023-02-11T07:18:46;95551.00;;;-1.71;62.60
9462;BME280;4769;42.660;23.262;2023-02-11T07:21:15;95555.41;;;-1.62;62.28
9462;BME280;4769;42.660;23.262;2023-02-11T07:23:46;95523.09;;;-1.86;60.75
9462;BME280;4769;42.660;23.262;2023-02-11T07:26:15;95549.50;;;-1.73;60.64
9462;BME280;4769;42.660;23.262;2023-02-11T07:28:42;95549.03;;;-1.58;60.48
9462;BME280;4769;42.660;23.262;2023-02-11T07:31:13;95540.22;;;-1.46;60.54
9462;BME280;4769;42.660;23.262;2023-02-11T07:33:42;95544.47;;;-1.26;60.71
9462;BME280;4769;42.660;23.262;2023-02-11T07:36:12;95532.47;;;-1.17;59.00
9462;BME280;4769;42.660;23.262;2023-02-11T07:38:43;95527.56;;;-1.11;59.73
9462;BME280;4769;42.660;23.262;2023-02-11T07:41:11;95524.03;;;-1.00;59.08
9462;BME280;4769;42.660;23.262;2023-02-11T07:43:39;95522.00;;;-1.06;58.11
9462;BME280;4769;42.660;23.262;2023-02-11T07:46:08;95524.47;;;-0.86;57.48
9462;BME280;4769;42.660;23.262;2023-02-11T07:48:36;95511.50;;;-0.86;56.44
9462;BME280;4769;42.660;23.262;2023-02-11T07:51:09;95516.69;;;-0.86;56.30
9462;BME280;4769;42.660;23.262;2023-02-11T07:53:37;95498.63;;;-0.59;56.38
9462;BME280;4769;42.660;23.262;2023-02-11T07:56:05;95515.25;;;-0.42;56.50
9462;BME280;4769;42.660;23.262;2023-02-11T07:58:33;95515.34;;;-0.25;54.59
9462;BME280;4769;42.660;23.262;2023-02-11T08:01:00;95518.25;;;-0.56;55.85
9462;BME280;4769;42.660;23.262;2023-02-11T08:03:28;95509.03;;;-0.78;56.12
9462;BME280;4769;42.660;23.262;2023-02-11T08:05:54;95520.03;;;-0.47;56.76
9462;BME280;4769;42.660;23.262;2023-02-11T08:08:24;95512.19;;;-0.84;57.11
9462;BME280;4769;42.660;23.262;2023-02-11T08:10:51;95504.97;;;-0.99;58.14
9462;BME280;4769;42.660;23.262;2023-02-11T08:13:18;95505.38;;;-0.85;57.26
9462;BME280;4769;42.660;23.262;2023-02-11T08:15:46;95522.41;;;-0.92;58.55
9462;BME280;4769;42.660;23.262;2023-02-11T08:18:13;95513.38;;;-0.69;58.68
9462;BME280;4769;42.660;23.262;2023-02-11T08:20:41;95507.00;;;-0.74;58.28
9462;BME280;4769;42.660;23.262;2023-02-11T08:23:09;95519.41;;;-0.68;57.94
9462;BME280;4769;42.660;23.262;2023-02-11T08:25:37;95516.38;;;-0.64;57.78
9462;BME280;4769;42.660;23.262;2023-02-11T08:28:04;95526.97;;;-0.38;57.61
9462;BME280;4769;42.660;23.262;2023-02-11T08:30:33;95518.97;;;-0.64;58.34
9462;BME280;4769;42.660;23.262;2023-02-11T08:33:00;95519.56;;;-0.24;58.27
9462;BME280;4769;42.660;23.262;2023-02-11T08:35:27;95515.50;;;-0.26;58.10
9462;BME280;4769;42.660;23.262;2023-02-11T08:37:54;95519.78;;;-0.08;59.07
9462;BME280;4769;42.660;23.262;2023-02-11T08:40:21;95515.34;;;0.12;60.18
9462;BME280;4769;42.660;23.262;2023-02-11T08:42:50;95506.72;;;-0.16;59.48
9462;BME280;4769;42.660;23.262;2023-02-11T08:45:17;95509.91;;;0.05;60.05
9462;BME280;4769;42.660;23.262;2023-02-11T08:47:44;95518.31;;;0.17;60.36
9462;BME280;4769;42.660;23.262;2023-02-11T08:50:11;95512.66;;;0.31;60.20
9462;BME280;4769;42.660;23.262;2023-02-11T08:52:38;95516.41;;;0.19;60.35
9462;BME280;4769;42.660;23.262;2023-02-11T08:55:05;95509.22;;;0.57;60.81
9462;BME280;4769;42.660;23.262;2023-02-11T08:57:32;95519.78;;;0.91;58.84
9462;BME280;4769;42.660;23.262;2023-02-11T09:00:00;95511.78;;;0.67;58.22
9462;BME280;4769;42.660;23.262;2023-02-11T09:02:27;95512.94;;;1.25;56.71
9462;BME280;4769;42.660;23.262;2023-02-11T09:04:54;95515.63;;;1.33;55.14
9462;BME280;4769;42.660;23.262;2023-02-11T09:07:21;95505.63;;;1.21;53.42
9462;BME280;4769;42.660;23.262;2023-02-11T09:09:47;95508.69;;;1.59;54.45
9462;BME280;4769;42.660;23.262;2023-02-11T09:12:14;95510.88;;;1.72;51.50
9462;BME280;4769;42.660;23.262;2023-02-11T09:14:41;95504.59;;;1.57;51.72
9462;BME280;4769;42.660;23.262;2023-02-11T09:17:09;95505.75;;;1.37;52.48
9462;BME280;4769;42.660;23.262;2023-02-11T09:19:36;95508.63;;;1.51;54.02
9462;BME280;4769;42.660;23.262;2023-02-11T09:22:02;95496.25;;;1.96;52.21
9462;BME280;4769;42.660;23.262;2023-02-11T09:24:29;95476.81;;;1.83;51.94
9462;BME280;4769;42.660;23.262;2023-02-11T09:26:56;95483.84;;;1.90;51.56
9462;BME280;4769;42.660;23.262;2023-02-11T09:29:23;95489.88;;;1.91;50.90
9462;BME280;4769;42.660;23.262;2023-02-11T09:31:49;95485.88;;;2.46;50.79
9462;BME280;4769;42.660;23.262;2023-02-11T09:34:18;95490.00;;;2.64;50.65
9462;BME280;4769;42.660;23.262;2023-02-11T09:36:44;95484.56;;;2.42;50.99
9462;BME280;4769;42.660;23.262;2023-02-11T09:39:14;95482.94;;;2.49;51.55
9462;BME280;4769;42.660;23.262;2023-02-11T09:42:00;95484.41;;;2.51;50.24
9462;BME280;4769;42.660;23.262;2023-02-11T09:44:32;95479.19;;;2.35;50.61
9462;BME280;4769;42.660;23.262;2023-02-11T09:47:01;95473.47;;;2.32;50.37
9462;BME280;4769;42.660;23.262;2023-02-11T09:49:41;95478.06;;;2.46;51.25
9462;BME280;4769;42.660;23.262;2023-02-11T09:52:15;95464.13;;;2.55;49.43
9462;BME280;4769;42.660;23.262;2023-02-11T09:54:52;95457.81;;;2.81;48.51
9462;BME280;4769;42.660;23.262;2023-02-11T09:57:20;95450.72;;;2.42;47.99
9462;BME280;4769;42.660;23.262;2023-02-11T09:59:47;95456.78;;;2.58;47.02
9462;BME280;4769;42.660;23.262;2023-02-11T10:02:20;95445.59;;;2.82;47.71
9462;BME280;4769;42.660;23.262;2023-02-11T10:05:12;95440.53;;;2.64;47.45
9462;BME280;4769;42.660;23.262;2023-02-11T10:07:45;95432.88;;;2.63;47.02
9462;BME280;4769;42.660;23.262;2023-02-11T10:10:24;95421.78;;;2.53;47.51
9462;BME280;4769;42.660;23.262;2023-02-11T10:13:15;95424.09;;;2.72;47.05
9462;BME280;4769;42.660;23.262;2023-02-11T10:15:51;95413.16;;;2.60;46.75
9462;BME280;4769;42.660;23.262;2023-02-11T10:18:33;95417.44;;;3.25;45.25
9462;BME280;4769;42.660;23.262;2023-02-11T10:21:14;95415.81;;;3.16;43.40
9462;BME280;4769;42.660;23.262;2023-02-11T10:23:46;95409.09;;;3.46;42.42
9462;BME280;4769;42.660;23.262;2023-02-11T10:26:16;95387.84;;;3.81;41.34
9462;BME280;4769;42.660;23.262;2023-02-11T10:28:45;95390.41;;;3.89;41.78
9462;BME280;4769;42.660;23.262;2023-02-11T10:31:14;95372.81;;;3.91;42.45
9462;BME280;4769;42.660;23.262;2023-02-11T10:33:45;95366.91;;;3.89;42.35
9462;BME280;4769;42.660;23.262;2023-02-11T10:36:16;95367.34;;;4.08;42.12
9462;BME280;4769;42.660;23.262;2023-02-11T10:38:44;95356.19;;;3.84;41.39
9462;BME280;4769;42.660;23.262;2023-02-11T10:41:15;95349.38;;;4.13;41.77
9462;BME280;4769;42.660;23.262;2023-02-11T10:43:43;95348.06;;;4.40;39.89
9462;BME280;4769;42.660;23.262;2023-02-11T10:46:14;95334.75;;;4.57;39.53
9462;BME280;4769;42.660;23.262;2023-02-11T10:48:43;95330.81;;;4.61;38.32
9462;BME280;4769;42.660;23.262;2023-02-11T10:51:22;95331.53;;;4.70;38.24
9462;BME280;4769;42.660;23.262;2023-02-11T10:53:57;95331.06;;;4.44;39.73
9462;BME280;4769;42.660;23.262;2023-02-11T10:56:41;95325.22;;;4.19;40.70
9462;BME280;4769;42.660;23.262;2023-02-11T10:59:16;95324.81;;;4.75;40.43
9462;BME280;4769;42.660;23.262;2023-02-11T11:01:46;95309.59;;;5.16;40.94
9462;BME280;4769;42.660;23.262;2023-02-11T11:04:33;95305.63;;;5.20;39.22
9462;BME280;4769;42.660;23.262;2023-02-11T11:07:17;95306.63;;;5.62;38.65
9462;BME280;4769;42.660;23.262;2023-02-11T11:09:53;95307.44;;;6.42;38.22
9462;BME280;4769;42.660;23.262;2023-02-11T11:12:26;95294.38;;;6.27;37.45
9462;BME280;4769;42.660;23.262;2023-02-11T11:14:55;95303.84;;;6.28;38.17
9462;BME280;4769;42.660;23.262;2023-02-11T11:17:23;95301.78;;;6.45;37.29
9462;BME280;4769;42.660;23.262;2023-02-11T11:19:54;95292.47;;;6.57;38.45
9462;BME280;4769;42.660;23.262;2023-02-11T11:22:23;95290.63;;;6.36;37.21
9462;BME280;4769;42.660;23.262;2023-02-11T11:24:50;95280.91;;;6.30;35.62
9462;BME280;4769;42.660;23.262;2023-02-11T11:27:22;95276.84;;;6.49;36.28
9462;BME280;4769;42.660;23.262;2023-02-11T11:29:51;95280.53;;;6.54;35.73
9462;BME280;4769;42.660;23.262;2023-02-11T11:32:21;95280.81;;;7.42;35.62
9462;BME280;4769;42.660;23.262;2023-02-11T11:34:51;95284.97;;;7.57;35.74
9462;BME280;4769;42.660;23.262;2023-02-11T11:37:25;95274.78;;;7.14;34.53
9462;BME280;4769;42.660;23.262;2023-02-11T11:39:56;95273.16;;;7.13;34.61
9462;BME280;4769;42.660;23.262;2023-02-11T11:42:26;95269.53;;;6.86;35.46
9462;BME280;4769;42.660;23.262;2023-02-11T11:44:59;95282.81;;;7.06;35.52
9462;BME280;4769;42.660;23.262;2023-02-11T11:47:32;95279.56;;;7.65;34.99
9462;BME280;4769;42.660;23.262;2023-02-11T11:50:14;95273.25;;;7.60;34.34
9462;BME280;4769;42.660;23.262;2023-02-11T11:52:50;95268.56;;;7.21;35.11
9462;BME280;4769;42.660;23.262;2023-02-11T11:55:21;95269.72;;;8.21;34.35
9462;BME280;4769;42.660;23.262;2023-02-11T11:57:50;95254.22;;;8.45;33.44
9462;BME280;4769;42.660;23.262;2023-02-11T12:00:20;95243.72;;;8.52;33.53
9462;BME280;4769;42.660;23.262;2023-02-11T12:03:21;95245.13;;;8.48;33.08
9462;BME280;4769;42.660;23.262;2023-02-11T12:06:09;95237.03;;;7.83;32.98
9462;BME280;4769;42.660;23.262;2023-02-11T12:08:44;95244.50;;;7.39;33.96
9462;BME280;4769;42.660;23.262;2023-02-11T12:11:23;95230.00;;;7.15;33.63
9462;BME280;4769;42.660;23.262;2023-02-11T12:14:09;95224.03;;;6.94;34.40
9462;BME280;4769;42.660;23.262;2023-02-11T12:16:48;95228.41;;;7.14;33.46
9462;BME280;4769;42.660;23.262;2023-02-11T12:19:32;95214.28;;;7.56;32.54
9462;BME280;4769;42.660;23.262;2023-02-11T12:22:09;95212.16;;;7.79;32.06
9462;BME280;4769;42.660;23.262;2023-02-11T12:24:55;95206.13;;;7.38;32.17
9462;BME280;4769;42.660;23.262;2023-02-11T12:27:39;95195.38;;;8.27;31.70
9462;BME280;4769;42.660;23.262;2023-02-11T12:30:20;95198.97;;;7.66;31.62
9462;BME280;4769;42.660;23.262;2023-02-11T12:32:54;95199.84;;;7.73;31.89
9462;BME280;4769;42.660;23.262;2023-02-11T12:35:35;95193.97;;;8.44;31.17
9462;BME280;4769;42.660;23.262;2023-02-11T12:38:31;95189.13;;;8.41;31.44
9462;BME280;4769;42.660;23.262;2023-02-11T12:41:11;95185.13;;;7.78;32.84
9462;BME280;4769;42.660;23.262;2023-02-11T12:43:42;95185.53;;;7.82;31.94
9462;BME280;4769;42.660;23.262;2023-02-11T12:46:32;95180.44;;;8.40;31.89
9462;BME280;4769;42.660;23.262;2023-02-11T12:49:22;95181.25;;;8.99;31.16
9462;BME280;4769;42.660;23.262;2023-02-11T12:52:07;95172.13;;;8.76;30.93
9462;BME280;4769;42.660;23.262;2023-02-11T12:54:40;95171.50;;;9.00;31.18
9462;BME280;4769;42.660;23.262;2023-02-11T12:57:16;95167.47;;;8.84;31.57
9462;BME280;4769;42.660;23.262;2023-02-11T12:59:52;95159.03;;;9.46;30.87
9462;BME280;4769;42.660;23.262;2023-02-11T13:02:28;95148.59;;;9.77;31.05
9462;BME280;4769;42.660;23.262;2023-02-11T13:05:04;95163.63;;;9.63;29.92
9462;BME280;4769;42.660;23.262;2023-02-11T13:07:35;95167.06;;;8.94;30.78
9462;BME280;4769;42.660;23.262;2023-02-11T13:10:08;95163.84;;;8.92;30.61
9462;BME280;4769;42.660;23.262;2023-02-11T13:12:45;95150.03;;;9.22;30.23
9462;BME280;4769;42.660;23.262;2023-02-11T13:15:32;95159.75;;;9.02;30.10
9462;BME280;4769;42.660;23.262;2023-02-11T13:18:01;95148.66;;;8.81;30.40
9462;BME280;4769;42.660;23.262;2023-02-11T13:20:40;95145.66;;;8.51;31.25
9462;BME280;4769;42.660;23.262;2023-02-11T13:23:17;95148.50;;;8.50;30.88
9462;BME280;4769;42.660;23.262;2023-02-11T13:25:49;95145.84;;;8.82;31.23
9462;BME280;4769;42.660;23.262;2023-02-11T13:28:32;95154.75;;;8.49;31.00
9462;BME280;4769;42.660;23.262;2023-02-11T13:31:05;95154.13;;;8.27;31.28
9462;BME280;4769;42.660;23.262;2023-02-11T13:33:34;95154.06;;;7.95;31.96
9462;BME280;4769;42.660;23.262;2023-02-11T13:36:23;95144.44;;;8.67;31.50
9462;BME280;4769;42.660;23.262;2023-02-11T13:38:59;95150.50;;;8.35;30.81
9462;BME280;4769;42.660;23.262;2023-02-11T13:41:30;95141.56;;;8.10;31.10